Delfinopolis, Brazil
Current Conditions -  °F | °C
As of 9:00 PM on Thursday 20 Nov 2014 (Local Time) from SBUR Reporting Station
Few Clouds Few Clouds  
Wind Chill: 82°   Ceiling: Unl
Heat Index: 82°   Visibility: 6mi
Dew Point: 52°   Wind: 3mph
Humidity: 35%   Direction: 360°N
Pressure: 30"   Gusts: NA
Location:  20.34°S, 46.85°W
Report Text: SBUR 202300Z 36003KT 9999 FEW045 28/11 Q1016
Loading
Personal Weather Stations






























Interactive Weather Map New forecast layout! Learn more

10-Day Weather Forecast

Advertisements
Track Severe Weather on mobile